Time;durP1;ratioP1;P1;durP2;ratioP2;P2;SDS_P1;SDS_P2;PMS_P1;PMS_P2;Temp;Humidity;BMP_temperature;BMP_pressure;BME280_temperature;BME280_humidity;BME280_pressure;Samples;Min_cycle;Max_cycle;Signal;HPM_P1;HPM_P2
2023/01/22 00:00:26;;;;;;;2.43;1.67;;;4.40;40.50;;;;;;4954148;29;20187;-71
2023/01/22 00:02:52;;;;;;;3.20;1.53;;;4.40;40.70;;;;;;4954531;29;20273;-71
2023/01/22 00:05:17;;;;;;;2.37;1.60;;;4.30;40.60;;;;;;4954724;28;20226;-70
2023/01/22 00:07:43;;;;;;;2.17;1.30;;;4.10;40.70;;;;;;4951708;29;20203;-71
2023/01/22 00:10:10;;;;;;;2.20;1.37;;;4.20;40.90;;;;;;4953687;29;20242;-71
2023/01/22 00:12:36;;;;;;;1.70;1.20;;;4.20;41.00;;;;;;4954924;28;20172;-71
2023/01/22 00:15:02;;;;;;;1.93;1.40;;;4.20;41.00;;;;;;4953681;28;20199;-69
2023/01/22 00:17:28;;;;;;;2.72;1.45;;;4.30;41.00;;;;;;4949541;29;20303;-69
2023/01/22 00:19:54;;;;;;;1.70;1.10;;;4.50;40.30;;;;;;4951217;29;20572;-71
2023/01/22 00:22:20;;;;;;;1.60;1.10;;;4.50;39.90;;;;;;4954737;29;20179;-71
2023/01/22 00:24:45;;;;;;;2.00;1.27;;;4.40;40.00;;;;;;4954535;28;20526;-71
2023/01/22 00:27:11;;;;;;;1.80;1.27;;;4.50;39.60;;;;;;4954738;29;20663;-71
2023/01/22 00:29:37;;;;;;;1.70;1.20;;;4.60;39.70;;;;;;4953451;29;20442;-71
2023/01/22 00:32:03;;;;;;;5.27;1.67;;;4.70;38.60;;;;;;4953647;29;20237;-71
2023/01/22 00:34:29;;;;;;;1.70;1.10;;;4.70;38.60;;;;;;4954367;28;20197;-71
2023/01/22 00:36:54;;;;;;;1.80;1.20;;;4.50;39.30;;;;;;4954393;28;20505;-71
2023/01/22 00:39:20;;;;;;;1.70;1.20;;;4.70;39.40;;;;;;4953514;29;20282;-70
2023/01/22 00:41:46;;;;;;;1.60;1.07;;;4.80;38.50;;;;;;4952096;29;20194;-71
2023/01/22 00:44:11;;;;;;;2.10;1.27;;;4.50;39.10;;;;;;4952248;28;20238;-71
2023/01/22 00:46:37;;;;;;;1.83;1.37;;;4.20;40.10;;;;;;4945577;29;20215;-71
2023/01/22 00:49:02;;;;;;;1.73;1.20;;;4.30;40.40;;;;;;4954130;29;20187;-71
2023/01/22 00:51:29;;;;;;;1.90;1.40;;;4.30;40.60;;;;;;4953531;28;20254;-71
2023/01/22 00:53:55;;;;;;;1.70;1.10;;;4.30;40.50;;;;;;4952921;29;20183;-70
2023/01/22 00:56:20;;;;;;;1.70;1.13;;;4.50;40.20;;;;;;4953965;28;20202;-70
2023/01/22 00:58:46;;;;;;;1.73;1.17;;;4.60;39.70;;;;;;4951907;29;20427;-71
2023/01/22 01:01:13;;;;;;;1.70;1.10;;;4.50;40.00;;;;;;4953414;29;20535;-70
2023/01/22 01:03:38;;;;;;;2.05;1.45;;;4.80;38.30;;;;;;4952367;28;20171;-71
2023/01/22 01:06:15;;;;;;;1.70;1.20;;;4.80;38.10;;;;;;4953110;28;20211;-71
2023/01/22 01:08:41;;;;;;;1.90;1.35;;;4.80;38.50;;;;;;4945535;29;20210;-73
2023/01/22 01:11:11;;;;;;;1.70;1.10;;;5.00;37.60;;;;;;4951052;29;20671;-71
2023/01/22 01:13:38;;;;;;;1.80;1.20;;;5.00;37.60;;;;;;4949734;29;20188;-71
2023/01/22 01:16:10;;;;;;;7.35;2.53;;;4.80;38.30;;;;;;4953064;28;20345;-70
2023/01/22 01:18:36;;;;;;;1.70;1.10;;;4.70;38.60;;;;;;4953728;28;20692;-71
2023/01/22 01:21:03;;;;;;;2.53;1.47;;;4.80;37.50;;;;;;4953623;29;20207;-71
2023/01/22 01:23:29;;;;;;;3.08;2.20;;;4.50;38.30;;;;;;4951417;29;20229;-70
2023/01/22 01:25:55;;;;;;;1.60;1.00;;;4.50;39.40;;;;;;4935834;29;20666;-71
2023/01/22 01:28:20;;;;;;;1.67;1.10;;;4.90;38.00;;;;;;4953533;29;20282;-71
2023/01/22 01:30:46;;;;;;;1.90;1.27;;;4.80;37.90;;;;;;4953700;28;20785;-71
2023/01/22 01:33:12;;;;;;;5.13;2.33;;;4.80;37.90;;;;;;4953258;29;20498;-70
2023/01/22 01:35:38;;;;;;;1.80;1.20;;;4.80;37.80;;;;;;4946100;28;20239;-71
2023/01/22 01:38:04;;;;;;;3.87;2.20;;;4.70;38.40;;;;;;4952725;28;20442;-70
2023/01/22 01:40:30;;;;;;;3.75;1.70;;;4.70;38.00;;;;;;4952945;29;20518;-70
2023/01/22 01:42:55;;;;;;;2.57;1.60;;;4.80;37.60;;;;;;4952904;29;20319;-71
2023/01/22 01:45:30;;;;;;;1.80;1.13;;;4.50;38.70;;;;;;4953600;28;20321;-70
2023/01/22 01:48:28;;;;;;;1.80;1.20;;;4.60;38.50;;;;;;4956216;29;20741;-70
2023/01/22 01:51:28;;;;;;;1.80;1.20;;;4.60;38.00;;;;;;4953842;29;20250;-70
2023/01/22 01:53:56;;;;;;;1.70;1.20;;;4.50;38.90;;;;;;4951881;29;20540;-69
2023/01/22 01:56:28;;;;;;;1.70;1.10;;;4.40;39.00;;;;;;4950193;28;20274;-70
2023/01/22 01:59:01;;;;;;;1.60;1.00;;;4.10;39.60;;;;;;4952803;28;20179;-70
2023/01/22 02:01:26;;;;;;;1.77;1.20;;;3.90;40.70;;;;;;4953283;28;20181;-70
2023/01/22 02:03:52;;;;;;;2.10;1.37;;;4.40;39.40;;;;;;4952300;29;20171;-69
2023/01/22 02:06:19;;;;;;;1.70;1.10;;;4.50;39.60;;;;;;4953628;28;20207;-70
2023/01/22 02:08:47;;;;;;;2.70;1.65;;;4.30;39.20;;;;;;4951725;29;20184;-70
2023/01/22 02:11:13;;;;;;;1.90;1.25;;;4.20;40.00;;;;;;4954034;28;20188;-69
2023/01/22 02:13:44;;;;;;;2.20;1.42;;;3.90;40.80;;;;;;4957742;29;20550;-70
2023/01/22 02:16:10;;;;;;;1.70;1.10;;;3.70;41.50;;;;;;4950255;28;20222;-70
2023/01/22 02:18:36;;;;;;;7.15;2.13;;;4.00;40.80;;;;;;4951147;29;20179;-70
2023/01/22 02:21:02;;;;;;;1.90;1.30;;;4.40;39.90;;;;;;4954927;29;20194;-70
2023/01/22 02:23:30;;;;;;;1.70;1.10;;;4.60;38.90;;;;;;4954799;29;20176;-69
2023/01/22 02:25:57;;;;;;;1.80;1.30;;;4.60;38.90;;;;;;4952322;28;20199;-70
2023/01/22 02:28:23;;;;;;;1.70;1.10;;;4.60;39.20;;;;;;4950175;29;20913;-69
2023/01/22 02:30:48;;;;;;;1.80;1.20;;;4.50;39.50;;;;;;4950840;29;20278;-70
2023/01/22 02:33:15;;;;;;;2.53;1.80;;;4.50;39.60;;;;;;4952777;29;20182;-70
2023/01/22 02:35:40;;;;;;;1.80;1.20;;;4.50;39.60;;;;;;4953758;29;20541;-70
2023/01/22 02:38:06;;;;;;;1.80;1.20;;;4.70;39.20;;;;;;4952974;29;20191;-70
2023/01/22 02:40:32;;;;;;;1.80;1.20;;;4.80;38.30;;;;;;4952370;29;20213;-69
2023/01/22 02:42:58;;;;;;;1.80;1.17;;;4.80;38.60;;;;;;4941102;29;20694;-70
2023/01/22 02:45:24;;;;;;;1.90;1.27;;;4.90;38.60;;;;;;4953894;28;20203;-70
2023/01/22 02:47:50;;;;;;;1.80;1.10;;;4.80;38.40;;;;;;4954491;29;20702;-70
2023/01/22 02:50:16;;;;;;;2.87;1.63;;;4.90;37.90;;;;;;4953853;29;20175;-70
2023/01/22 02:52:41;;;;;;;1.80;1.17;;;4.90;39.10;;;;;;4951487;29;20198;-71
2023/01/22 02:55:07;;;;;;;2.57;1.93;;;4.60;39.50;;;;;;4953685;28;20204;-70
2023/01/22 02:57:33;;;;;;;2.27;1.50;;;3.40;42.10;;;;;;4954177;29;20179;-70
2023/01/22 02:59:58;;;;;;;2.57;1.50;;;3.60;42.80;;;;;;4954515;29;20414;-70
2023/01/22 03:02:25;;;;;;;1.70;1.10;;;3.80;42.30;;;;;;4953152;29;20238;-70
2023/01/22 03:04:51;;;;;;;2.95;1.75;;;3.60;42.50;;;;;;4951402;28;20590;-70
2023/01/22 03:07:17;;;;;;;1.90;1.27;;;3.80;42.00;;;;;;4954381;28;20195;-70
2023/01/22 03:09:44;;;;;;;2.42;1.70;;;3.50;42.70;;;;;;4953156;29;20434;-70
2023/01/22 03:12:10;;;;;;;1.80;1.20;;;3.60;42.80;;;;;;4953317;29;20246;-70
2023/01/22 03:22:48;;;;;;;1.80;1.20;;;3.60;42.90;;;;;;4951677;29;20631;-70
2023/01/22 03:25:14;;;;;;;1.80;1.20;;;3.40;43.30;;;;;;4957162;29;20203;-70
2023/01/22 03:28:07;;;;;;;1.80;1.23;;;3.30;43.80;;;;;;4956910;29;20365;-70
2023/01/22 03:30:25;;;;;;;1.80;1.20;;;3.80;43.50;;;;;;4957964;29;20202;-70
2023/01/22 03:32:51;;;;;;;1.83;1.20;;;4.10;42.70;;;;;;4956014;29;20663;-70
2023/01/22 03:35:16;;;;;;;1.80;1.27;;;4.40;41.50;;;;;;4954178;28;21026;-68
2023/01/22 03:37:42;;;;;;;1.70;1.10;;;4.60;41.50;;;;;;4954933;29;20187;-70
2023/01/22 03:40:08;;;;;;;1.70;1.20;;;4.20;41.40;;;;;;4955500;29;20191;-70
2023/01/22 03:42:34;;;;;;;1.70;1.20;;;4.50;40.40;;;;;;4955564;28;20190;-69
2023/01/22 03:45:00;;;;;;;2.77;2.27;;;4.50;40.40;;;;;;4953327;28;20215;-70
2023/01/22 03:47:25;;;;;;;1.70;1.10;;;4.60;39.90;;;;;;4952635;29;20203;-70
2023/01/22 03:49:51;;;;;;;3.30;1.83;;;4.70;39.90;;;;;;4955243;29;20702;-69
2023/01/22 03:52:16;;;;;;;1.70;1.10;;;4.70;39.80;;;;;;4955224;29;20172;-70
2023/01/22 03:54:42;;;;;;;1.70;1.10;;;4.70;39.70;;;;;;4953954;29;20203;-70
2023/01/22 03:57:07;;;;;;;2.10;1.57;;;4.70;39.60;;;;;;4953202;29;20219;-70
2023/01/22 03:59:33;;;;;;;1.90;1.33;;;4.80;39.30;;;;;;4954997;29;20228;-69
2023/01/22 04:01:59;;;;;;;2.20;1.50;;;4.90;38.40;;;;;;4954483;29;20619;-71
2023/01/22 04:04:24;;;;;;;1.73;1.10;;;4.80;38.80;;;;;;4944228;28;20218;-70
2023/01/22 04:06:51;;;;;;;1.90;1.30;;;4.70;39.10;;;;;;4953254;29;20207;-70
2023/01/22 04:09:16;;;;;;;2.00;1.45;;;4.80;39.00;;;;;;4954691;28;20195;-69
2023/01/22 04:11:42;;;;;;;1.80;1.30;;;4.90;38.40;;;;;;4954920;29;20556;-70
2023/01/22 04:14:08;;;;;;;1.70;1.17;;;5.00;38.60;;;;;;4954585;28;20563;-70
2023/01/22 04:16:33;;;;;;;2.10;1.60;;;4.80;39.10;;;;;;4953280;29;20180;-70
2023/01/22 04:18:59;;;;;;;1.80;1.23;;;4.80;39.50;;;;;;4954256;29;20501;-70
2023/01/22 04:21:24;;;;;;;2.17;1.20;;;4.60;40.40;;;;;;4954524;29;20182;-70
2023/01/22 04:23:50;;;;;;;1.73;1.10;;;4.50;40.00;;;;;;4937543;29;20647;-70
2023/01/22 04:26:15;;;;;;;1.70;1.10;;;4.60;39.70;;;;;;4952713;28;20274;-70
2023/01/22 04:28:41;;;;;;;2.10;1.30;;;4.60;39.40;;;;;;4953649;29;20573;-70
2023/01/22 04:31:08;;;;;;;8.67;3.03;;;4.60;39.70;;;;;;4954500;29;20230;-70
2023/01/22 04:33:34;;;;;;;2.15;1.55;;;4.70;39.60;;;;;;4954344;29;20168;-70
2023/01/22 04:36:00;;;;;;;1.70;1.10;;;4.80;39.30;;;;;;4954187;28;20208;-70
2023/01/22 04:38:25;;;;;;;1.80;1.20;;;4.80;39.50;;;;;;4951929;29;20175;-70
2023/01/22 04:40:51;;;;;;;2.23;1.57;;;4.60;40.40;;;;;;4953493;29;20183;-70
2023/01/22 04:43:16;;;;;;;2.93;1.97;;;4.60;41.10;;;;;;4954078;29;20227;-69
2023/01/22 04:45:42;;;;;;;1.70;1.10;;;4.70;40.40;;;;;;4954300;28;20258;-68
2023/01/22 04:48:09;;;;;;;3.60;2.13;;;4.80;40.70;;;;;;4952859;29;20217;-69
2023/01/22 04:50:35;;;;;;;2.65;1.83;;;4.70;40.50;;;;;;4952456;29;20175;-69
2023/01/22 04:53:02;;;;;;;1.97;1.40;;;4.60;40.40;;;;;;4953216;29;20180;-68
2023/01/22 04:55:28;;;;;;;1.70;1.10;;;4.70;39.90;;;;;;4953991;28;20289;-69
2023/01/22 04:57:58;;;;;;;2.00;1.30;;;4.80;40.10;;;;;;4954050;29;20262;-69
2023/01/22 05:00:25;;;;;;;1.80;1.20;;;4.70;40.40;;;;;;4952152;29;20178;-68
2023/01/22 05:02:57;;;;;;;1.90;1.40;;;4.50;41.00;;;;;;4952042;28;20218;-69
2023/01/22 05:05:24;;;;;;;1.70;1.10;;;4.40;41.70;;;;;;4951417;28;20266;-68
2023/01/22 05:07:50;;;;;;;1.80;1.20;;;4.30;42.30;;;;;;4953832;29;20200;-68
2023/01/22 05:10:15;;;;;;;1.80;1.23;;;4.40;42.20;;;;;;4935142;29;20599;-69
2023/01/22 05:12:41;;;;;;;4.57;2.10;;;4.30;42.40;;;;;;4952645;29;20175;-69
2023/01/22 05:15:07;;;;;;;1.90;1.30;;;4.40;42.20;;;;;;4952753;29;20210;-70
2023/01/22 05:17:33;;;;;;;1.70;1.10;;;4.60;42.00;;;;;;4953662;29;20300;-69
2023/01/22 05:19:58;;;;;;;1.80;1.20;;;4.60;42.30;;;;;;4936575;29;20370;-68
2023/01/22 05:22:24;;;;;;;2.07;1.53;;;4.80;41.50;;;;;;4952669;29;20182;-69
2023/01/22 05:24:49;;;;;;;1.70;1.10;;;4.80;41.30;;;;;;4952061;29;20216;-69
2023/01/22 05:27:15;;;;;;;1.70;1.10;;;4.80;41.20;;;;;;4953277;29;20195;-68
2023/01/22 05:29:41;;;;;;;1.80;1.20;;;4.90;41.40;;;;;;4953549;29;20171;-69
2023/01/22 05:32:07;;;;;;;1.83;1.23;;;4.90;41.20;;;;;;4953485;29;20258;-68
2023/01/22 05:34:33;;;;;;;1.70;1.17;;;5.00;40.80;;;;;;4951118;28;20246;-69
2023/01/22 05:36:58;;;;;;;1.93;1.40;;;4.90;40.90;;;;;;4952765;29;20610;-68
2023/01/22 05:39:24;;;;;;;1.80;1.20;;;4.80;41.30;;;;;;4952521;28;20191;-69
2023/01/22 05:41:51;;;;;;;2.10;1.53;;;4.80;41.70;;;;;;4953272;29;20384;-68
2023/01/22 05:44:17;;;;;;;3.55;1.52;;;4.80;41.20;;;;;;4951817;28;20198;-69
2023/01/22 05:46:42;;;;;;;1.70;1.10;;;4.80;41.80;;;;;;4952239;29;20207;-75
2023/01/22 05:49:08;;;;;;;1.70;1.10;;;4.90;41.90;;;;;;4944320;29;20262;-75
2023/01/22 05:51:34;;;;;;;1.70;1.10;;;4.70;41.80;;;;;;4953953;29;20176;-77
2023/01/22 05:54:00;;;;;;;1.90;1.30;;;4.70;41.70;;;;;;4936124;29;20595;-75
2023/01/22 05:56:25;;;;;;;2.10;1.30;;;4.70;41.90;;;;;;4948892;28;20199;-73
2023/01/22 05:58:51;;;;;;;1.77;1.20;;;4.80;42.00;;;;;;4942740;29;20666;-70
2023/01/22 06:01:17;;;;;;;1.80;1.20;;;4.90;41.50;;;;;;4953760;29;20550;-70
2023/01/22 06:03:42;;;;;;;2.10;1.60;;;4.80;41.90;;;;;;4952529;29;20176;-70
2023/01/22 06:06:11;;;;;;;2.00;1.27;;;4.90;41.50;;;;;;4953215;28;21040;-69
2023/01/22 06:08:37;;;;;;;1.85;1.20;;;4.80;41.50;;;;;;4951809;29;20215;-70
2023/01/22 06:11:10;;;;;;;4.63;1.63;;;4.80;41.70;;;;;;4952908;29;20223;-69
2023/01/22 06:13:36;;;;;;;1.80;1.20;;;4.80;41.70;;;;;;4934809;29;20628;-69
2023/01/22 06:16:02;;;;;;;1.70;1.15;;;4.90;41.60;;;;;;4953210;29;20793;-70
2023/01/22 06:18:28;;;;;;;1.80;1.23;;;5.00;41.10;;;;;;4951537;29;20237;-70
2023/01/22 06:20:59;;;;;;;2.00;1.42;;;4.90;41.00;;;;;;4951186;28;20206;-70
2023/01/22 06:23:26;;;;;;;1.80;1.20;;;4.80;41.20;;;;;;4952912;28;20262;-70
2023/01/22 06:25:53;;;;;;;1.70;1.17;;;4.70;41.80;;;;;;4951878;28;20261;-70
2023/01/22 06:28:19;;;;;;;1.70;1.10;;;4.90;41.30;;;;;;4952826;29;20800;-70
2023/01/22 06:30:45;;;;;;;1.73;1.20;;;4.80;41.30;;;;;;4953102;29;20184;-70
2023/01/22 06:33:11;;;;;;;1.90;1.20;;;4.90;42.10;;;;;;4952746;29;20178;-70
2023/01/22 06:35:36;;;;;;;1.70;1.10;;;5.00;41.10;;;;;;4951256;29;20446;-70
2023/01/22 06:38:02;;;;;;;1.80;1.23;;;5.00;41.20;;;;;;4952993;29;20864;-70
2023/01/22 06:40:27;;;;;;;2.30;1.50;;;4.90;41.20;;;;;;4952828;29;20248;-71
2023/01/22 06:42:53;;;;;;;2.10;1.40;;;5.00;41.30;;;;;;4952783;29;20603;-71
2023/01/22 06:45:19;;;;;;;1.80;1.20;;;4.90;41.20;;;;;;4951209;28;20204;-70
2023/01/22 06:47:45;;;;;;;1.70;1.10;;;4.90;41.00;;;;;;4952686;29;20278;-70
2023/01/22 06:50:11;;;;;;;1.90;1.40;;;4.90;41.10;;;;;;4964076;28;20182;-70
2023/01/22 06:52:37;;;;;;;2.17;1.42;;;4.90;41.90;;;;;;4975781;28;20846;-69
2023/01/22 06:55:03;;;;;;;3.00;2.37;;;5.00;40.80;;;;;;4963579;28;20236;-69
2023/01/22 06:57:29;;;;;;;2.25;1.67;;;5.00;40.80;;;;;;4954295;29;20187;-69
2023/01/22 06:59:55;;;;;;;1.80;1.20;;;5.00;41.20;;;;;;4956363;29;20187;-70
2023/01/22 07:02:20;;;;;;;1.90;1.30;;;4.90;41.70;;;;;;4956193;29;20179;-70
2023/01/22 07:04:46;;;;;;;1.70;1.10;;;5.00;41.10;;;;;;4955941;28;20215;-76
2023/01/22 07:07:11;;;;;;;2.00;1.37;;;4.90;41.10;;;;;;4955923;29;20742;-73
2023/01/22 07:09:37;;;;;;;1.70;1.10;;;4.80;41.30;;;;;;4956189;29;20190;-70
2023/01/22 07:12:03;;;;;;;1.90;1.30;;;4.70;42.30;;;;;;4956353;29;20537;-71
2023/01/22 07:14:32;;;;;;;1.80;1.10;;;4.70;42.40;;;;;;4956083;29;20566;-71
2023/01/22 07:16:57;;;;;;;1.80;1.20;;;4.90;42.10;;;;;;4955508;29;20183;-71
2023/01/22 07:19:23;;;;;;;1.70;1.20;;;4.80;42.40;;;;;;4955460;29;20194;-70
2023/01/22 07:21:49;;;;;;;2.50;1.60;;;4.60;43.30;;;;;;4956126;29;20274;-71
2023/01/22 07:24:15;;;;;;;1.90;1.37;;;4.60;42.90;;;;;;4954858;28;20198;-71
2023/01/22 07:26:42;;;;;;;1.70;1.20;;;4.60;42.80;;;;;;4954903;29;20466;-71
2023/01/22 07:29:08;;;;;;;1.70;1.20;;;4.80;42.90;;;;;;4954571;28;20193;-71
2023/01/22 07:31:34;;;;;;;1.70;1.05;;;4.80;42.70;;;;;;4955818;29;20847;-70
2023/01/22 07:34:01;;;;;;;1.90;1.30;;;4.90;42.70;;;;;;4951670;29;20266;-69
2023/01/22 07:36:26;;;;;;;1.90;1.30;;;4.90;42.70;;;;;;4954101;29;20834;-70
2023/01/22 07:38:52;;;;;;;1.90;1.23;;;5.10;42.00;;;;;;4954670;29;20184;-69
2023/01/22 07:41:17;;;;;;;1.80;1.23;;;5.00;42.30;;;;;;4955275;29;20187;-69
2023/01/22 07:43:43;;;;;;;2.00;1.13;;;5.00;42.20;;;;;;4955426;29;20175;-71
2023/01/22 07:46:09;;;;;;;2.17;1.40;;;5.00;42.30;;;;;;4955408;28;20195;-72
2023/01/22 07:48:34;;;;;;;2.00;1.40;;;4.90;42.70;;;;;;4955238;29;20199;-70
2023/01/22 07:51:02;;;;;;;1.80;1.20;;;4.80;43.00;;;;;;4954130;29;20171;-70
2023/01/22 07:53:28;;;;;;;2.25;1.67;;;4.70;43.90;;;;;;4955039;29;20182;-71
2023/01/22 07:55:54;;;;;;;1.70;1.10;;;4.60;44.10;;;;;;4955248;28;20195;-70
2023/01/22 07:58:20;;;;;;;1.90;1.30;;;4.60;44.30;;;;;;4955674;29;20442;-72
2023/01/22 08:00:46;;;;;;;1.70;1.08;;;4.30;45.20;;;;;;4953188;28;20241;-72
2023/01/22 08:03:14;;;;;;;3.20;2.50;;;4.50;44.90;;;;;;4954519;29;20187;-72
2023/01/22 08:05:41;;;;;;;2.45;1.88;;;4.70;44.50;;;;;;4935589;29;20215;-72
2023/01/22 08:08:13;;;;;;;1.95;1.40;;;4.80;43.90;;;;;;4954636;29;20277;-71
2023/01/22 08:10:39;;;;;;;1.88;1.30;;;4.50;44.80;;;;;;4953549;29;20221;-72
2023/01/22 08:13:04;;;;;;;1.73;1.07;;;4.60;44.90;;;;;;4954617;29;20234;-73
2023/01/22 08:15:31;;;;;;;13.40;2.53;;;4.90;44.20;;;;;;4954986;28;20194;-71
2023/01/22 08:17:57;;;;;;;1.88;1.30;;;5.10;43.50;;;;;;4937810;29;20183;-70
2023/01/22 08:20:23;;;;;;;2.00;1.30;;;5.20;43.10;;;;;;4954967;29;20179;-70
2023/01/22 08:22:48;;;;;;;1.80;1.10;;;5.20;43.00;;;;;;4952986;29;20609;-71
2023/01/22 08:25:14;;;;;;;2.20;1.70;;;5.00;43.00;;;;;;4954802;28;20282;-71
2023/01/22 08:27:40;;;;;;;1.80;1.30;;;4.90;43.60;;;;;;4956155;29;20652;-71
2023/01/22 08:30:07;;;;;;;1.70;1.10;;;5.00;44.20;;;;;;4956935;29;20183;-73
2023/01/22 08:32:33;;;;;;;3.20;2.35;;;5.20;42.80;;;;;;4955944;29;20257;-72
2023/01/22 08:34:59;;;;;;;1.83;1.25;;;5.30;42.10;;;;;;4956408;28;20199;-71
2023/01/22 08:37:25;;;;;;;1.70;1.10;;;5.40;41.70;;;;;;4954968;29;20179;-71
2023/01/22 08:39:50;;;;;;;1.80;1.10;;;5.40;41.70;;;;;;4955323;29;20179;-71
2023/01/22 08:42:16;;;;;;;1.87;1.30;;;5.50;41.70;;;;;;4953294;29;20182;-72
2023/01/22 08:44:41;;;;;;;1.80;1.20;;;5.50;41.30;;;;;;4954190;28;20215;-71
2023/01/22 08:47:09;;;;;;;1.80;1.20;;;5.60;41.20;;;;;;4954270;29;20213;-71
2023/01/22 08:49:35;;;;;;;1.83;1.30;;;5.60;40.30;;;;;;4954741;29;20278;-71
2023/01/22 08:52:00;;;;;;;1.80;1.20;;;5.50;41.40;;;;;;4954561;29;20679;-70
2023/01/22 08:54:26;;;;;;;1.70;1.00;;;5.50;41.50;;;;;;4951854;28;20206;-71
2023/01/22 08:56:51;;;;;;;1.80;1.20;;;5.40;41.30;;;;;;4954355;29;20179;-71
2023/01/22 08:59:17;;;;;;;3.83;2.67;;;5.00;42.50;;;;;;4954373;29;20651;-71
2023/01/22 09:01:43;;;;;;;1.70;1.10;;;4.90;43.00;;;;;;4954430;29;20179;-69
2023/01/22 09:04:09;;;;;;;1.70;1.07;;;5.10;42.70;;;;;;4952849;29;20257;-71
2023/01/22 09:06:37;;;;;;;1.70;1.10;;;5.20;41.50;;;;;;4953837;29;20183;-71
2023/01/22 09:09:03;;;;;;;2.10;1.40;;;5.00;42.10;;;;;;4954272;29;20184;-71
2023/01/22 09:11:30;;;;;;;2.80;1.67;;;5.30;41.40;;;;;;4936815;29;20236;-71
2023/01/22 09:13:57;;;;;;;1.75;1.20;;;5.50;41.00;;;;;;4952112;28;20274;-71
2023/01/22 09:16:23;;;;;;;1.90;1.40;;;5.60;40.40;;;;;;4953806;28;20205;-71
2023/01/22 09:18:49;;;;;;;1.92;1.10;;;5.30;41.30;;;;;;4935980;29;20714;-70
2023/01/22 09:21:15;;;;;;;2.00;1.30;;;4.80;42.80;;;;;;4934742;29;20176;-71
2023/01/22 09:23:40;;;;;;;1.80;1.10;;;3.90;46.00;;;;;;4945715;29;20198;-71
2023/01/22 09:26:06;;;;;;;6.03;2.60;;;3.60;48.80;;;;;;4953723;28;20223;-72
2023/01/22 09:28:31;;;;;;;1.77;1.10;;;3.90;48.70;;;;;;4953695;29;20226;-71
2023/01/22 09:30:57;;;;;;;1.70;1.20;;;3.50;50.10;;;;;;4953841;29;20183;-71
2023/01/22 09:33:23;;;;;;;1.87;1.20;;;4.10;48.70;;;;;;4951557;29;20697;-71
2023/01/22 09:35:48;;;;;;;3.70;2.67;;;4.70;45.00;;;;;;4953322;28;20214;-71
2023/01/22 09:38:14;;;;;;;2.00;1.37;;;4.40;46.40;;;;;;4953517;29;20183;-71
2023/01/22 09:40:49;;;;;;;1.63;1.10;;;4.60;44.90;;;;;;4954008;29;20174;-73
2023/01/22 09:43:30;;;;;;;1.90;1.10;;;4.80;43.40;;;;;;4953679;29;20557;-70
2023/01/22 09:46:00;;;;;;;2.00;1.67;;;4.90;44.10;;;;;;4952765;29;20693;-71
2023/01/22 09:48:34;;;;;;;1.90;1.30;;;4.60;44.40;;;;;;4952195;29;20203;-71
2023/01/22 09:51:00;;;;;;;1.80;1.10;;;4.60;45.70;;;;;;4953422;29;20179;-72
2023/01/22 09:53:27;;;;;;;2.53;1.67;;;5.00;42.50;;;;;;4952817;29;20187;-72
2023/01/22 09:55:54;;;;;;;1.80;1.20;;;5.00;42.20;;;;;;4953422;28;20431;-71
2023/01/22 09:58:22;;;;;;;1.95;1.15;;;5.10;42.70;;;;;;4951716;29;20274;-71
2023/01/22 10:00:55;;;;;;;1.80;1.20;;;5.20;40.70;;;;;;4952966;29;20535;-70
2023/01/22 10:03:28;;;;;;;3.53;1.98;;;5.30;40.50;;;;;;4953276;29;20554;-71
2023/01/22 10:06:17;;;;;;;1.70;1.10;;;5.90;39.40;;;;;;4953191;28;20613;-72
2023/01/22 10:08:48;;;;;;;2.05;1.40;;;6.30;37.70;;;;;;4951600;29;20195;-72
2023/01/22 10:11:14;;;;;;;2.55;1.52;;;6.40;37.10;;;;;;4954651;29;20183;-71
2023/01/22 10:13:40;;;;;;;1.80;1.20;;;6.50;36.50;;;;;;4955805;29;20188;-72
2023/01/22 10:16:06;;;;;;;4.83;1.93;;;6.60;36.50;;;;;;4955172;28;20202;-72
2023/01/22 10:18:57;;;;;;;1.83;1.20;;;6.70;37.30;;;;;;4955429;29;20266;-71
2023/01/22 10:21:51;;;;;;;1.95;1.35;;;6.50;37.30;;;;;;4937095;29;20442;-72
2023/01/22 10:24:17;;;;;;;1.90;1.30;;;6.60;37.10;;;;;;4940805;28;20203;-70
2023/01/22 10:26:53;;;;;;;1.80;1.20;;;6.60;36.40;;;;;;4961248;29;20191;-71
2023/01/22 10:29:26;;;;;;;1.70;1.10;;;6.50;36.80;;;;;;4960866;29;20166;-72
2023/01/22 10:31:55;;;;;;;1.80;1.17;;;6.40;36.70;;;;;;4940740;29;20183;-71
2023/01/22 10:34:30;;;;;;;2.40;1.63;;;6.40;37.20;;;;;;4956913;28;20182;-71
2023/01/22 10:37:03;;;;;;;2.17;1.40;;;6.30;36.70;;;;;;4957551;29;20619;-71
2023/01/22 10:39:40;;;;;;;2.58;1.50;;;6.10;37.50;;;;;;4957881;29;20199;-70
2023/01/22 10:42:14;;;;;;;1.90;1.30;;;6.20;37.50;;;;;;4955375;29;20179;-71
2023/01/22 10:44:39;;;;;;;2.10;1.40;;;6.20;37.50;;;;;;4957680;28;20214;-71
2023/01/22 10:47:19;;;;;;;1.90;1.20;;;5.70;37.90;;;;;;4956923;29;20199;-69
2023/01/22 10:49:45;;;;;;;2.00;1.48;;;5.70;37.30;;;;;;4957676;29;20163;-71
2023/01/22 10:52:26;;;;;;;1.85;1.25;;;5.80;37.20;;;;;;4955368;29;20215;-71
2023/01/22 10:54:56;;;;;;;2.00;1.35;;;6.00;37.60;;;;;;4950282;28;20187;-70
2023/01/22 10:57:32;;;;;;;1.92;1.30;;;6.50;37.40;;;;;;4957123;29;20270;-70
2023/01/22 11:00:13;;;;;;;1.80;1.20;;;6.70;35.90;;;;;;4956115;29;20314;-71
2023/01/22 11:02:47;;;;;;;1.88;1.30;;;6.70;35.20;;;;;;4949792;29;20198;-71
2023/01/22 11:05:23;;;;;;;1.80;1.10;;;6.50;35.40;;;;;;4957234;28;20230;-71
2023/01/22 11:08:14;;;;;;;1.80;1.20;;;6.90;36.00;;;;;;4956247;29;20234;-71
2023/01/22 11:10:54;;;;;;;1.92;1.35;;;6.60;36.50;;;;;;4955940;29;20535;-72
2023/01/22 11:13:27;;;;;;;1.80;1.10;;;6.40;36.10;;;;;;4954276;29;20650;-71
2023/01/22 11:16:09;;;;;;;1.80;1.30;;;6.60;36.40;;;;;;4958940;28;20753;-71
2023/01/22 11:18:38;;;;;;;1.90;1.30;;;6.70;36.30;;;;;;4957019;29;20543;-71
2023/01/22 11:21:15;;;;;;;1.90;1.30;;;6.90;35.90;;;;;;4956925;29;20186;-71
2023/01/22 11:23:56;;;;;;;1.90;1.30;;;7.10;35.30;;;;;;4955773;29;20206;-71
2023/01/22 11:26:21;;;;;;;2.13;1.40;;;7.00;35.50;;;;;;4957449;28;20207;-71
2023/01/22 11:29:20;;;;;;;2.47;1.57;;;6.90;35.40;;;;;;4957529;29;20273;-71
2023/01/22 11:31:48;;;;;;;1.70;1.13;;;7.10;35.90;;;;;;4957060;29;20175;-70
2023/01/22 11:34:32;;;;;;;1.95;1.38;;;6.70;35.30;;;;;;4954788;28;20187;-71
2023/01/22 11:37:12;;;;;;;2.72;2.03;;;6.60;36.40;;;;;;4956114;28;20644;-71
2023/01/22 11:40:17;;;;;;;1.70;1.10;;;6.40;37.10;;;;;;4955735;29;20219;-69
2023/01/22 11:42:55;;;;;;;3.88;1.67;;;6.30;38.00;;;;;;4938554;29;20198;-70
2023/01/22 11:45:42;;;;;;;3.45;1.83;;;6.30;37.30;;;;;;4953133;28;20762;-70
2023/01/22 11:48:20;;;;;;;1.70;1.10;;;6.10;38.20;;;;;;4955524;29;20669;-71
2023/01/22 11:51:05;;;;;;;1.80;1.20;;;6.60;36.10;;;;;;4956186;29;20584;-71
2023/01/22 11:53:46;;;;;;;1.80;1.20;;;7.00;36.00;;;;;;4954731;29;20785;-71
2023/01/22 11:56:24;;;;;;;1.80;1.20;;;7.20;36.10;;;;;;4954544;29;20209;-70
2023/01/22 11:59:01;;;;;;;1.90;1.30;;;7.20;35.00;;;;;;4955843;29;20212;-70
2023/01/22 12:01:33;;;;;;;1.88;1.35;;;7.30;34.70;;;;;;4956110;29;20174;-70
2023/01/22 12:04:39;;;;;;;2.03;1.40;;;7.30;34.30;;;;;;4955294;29;20175;-70
2023/01/22 12:07:18;;;;;;;2.63;1.83;;;7.10;34.80;;;;;;4954786;29;20230;-70
2023/01/22 12:10:08;;;;;;;1.70;1.10;;;7.00;34.30;;;;;;4948017;29;20554;-70
2023/01/22 12:13:00;;;;;;;1.95;1.38;;;7.00;34.80;;;;;;4955220;29;20175;-70
2023/01/22 12:15:50;;;;;;;1.70;1.10;;;7.20;34.70;;;;;;4955273;28;20218;-71
2023/01/22 12:18:46;;;;;;;1.80;1.10;;;7.10;34.70;;;;;;4954632;29;20194;-69
2023/01/22 12:21:28;;;;;;;2.00;1.45;;;7.10;34.70;;;;;;4954566;29;20182;-69
2023/01/22 12:24:09;;;;;;;1.70;1.20;;;7.20;33.90;;;;;;4954698;29;20171;-69
2023/01/22 12:26:41;;;;;;;2.85;1.50;;;6.50;36.30;;;;;;4955163;29;20233;-68
2023/01/22 12:29:17;;;;;;;1.92;1.45;;;7.00;36.10;;;;;;4953425;29;20518;-69
2023/01/22 12:32:08;;;;;;;2.00;1.30;;;7.50;34.80;;;;;;4953550;29;20187;-69
2023/01/22 12:35:12;;;;;;;1.90;1.30;;;7.70;34.30;;;;;;4937046;29;20208;-70
2023/01/22 12:38:03;;;;;;;2.00;1.45;;;7.80;33.60;;;;;;4955137;29;20211;-71
2023/01/22 12:40:47;;;;;;;1.70;1.10;;;7.70;33.60;;;;;;4933080;29;20238;-72
2023/01/22 12:43:13;;;;;;;2.42;1.77;;;7.40;33.90;;;;;;4954687;29;20198;-71
2023/01/22 12:45:47;;;;;;;1.77;1.20;;;7.40;34.50;;;;;;4954551;28;20683;-71
2023/01/22 12:48:21;;;;;;;2.42;1.77;;;7.00;34.80;;;;;;4953979;28;20258;-71
2023/01/22 12:50:54;;;;;;;1.80;1.20;;;6.90;35.50;;;;;;4936509;29;20201;-71
2023/01/22 12:53:33;;;;;;;3.53;2.15;;;6.90;35.70;;;;;;4954323;29;20172;-71
2023/01/22 12:56:03;;;;;;;1.70;1.20;;;6.90;35.90;;;;;;4954721;28;20234;-71
2023/01/22 12:58:32;;;;;;;1.80;1.25;;;6.80;36.10;;;;;;4954817;29;20595;-71
2023/01/22 13:01:22;;;;;;;1.80;1.20;;;6.80;35.80;;;;;;4953365;29;20267;-72
2023/01/22 13:04:00;;;;;;;1.80;1.20;;;7.00;35.40;;;;;;4948322;28;20207;-72
2023/01/22 13:06:38;;;;;;;3.00;1.67;;;6.10;37.70;;;;;;4953484;28;20246;-70
2023/01/22 13:09:20;;;;;;;1.83;1.20;;;5.70;38.20;;;;;;4954254;29;20213;-71
2023/01/22 13:11:46;;;;;;;2.35;1.60;;;5.00;41.40;;;;;;4936536;29;20279;-71
2023/01/22 13:14:19;;;;;;;2.63;1.93;;;5.20;40.80;;;;;;4952748;28;20273;-70
2023/01/22 13:17:18;;;;;;;1.80;1.17;;;5.60;39.90;;;;;;4935135;29;20165;-70